createdAt,value
2023-06-11T00:00:49.279Z,7.90
2023-06-11T00:03:22.688Z,7.90
2023-06-11T00:05:49.785Z,7.90
2023-06-11T00:08:16.771Z,7.90
2023-06-11T00:10:43.668Z,7.80
2023-06-11T00:13:10.841Z,7.90
2023-06-11T00:15:37.732Z,7.80
2023-06-11T00:18:06.386Z,7.80
2023-06-11T00:20:34.139Z,7.80
2023-06-11T00:23:01.157Z,7.70
2023-06-11T00:25:28.065Z,7.70
2023-06-11T00:27:54.930Z,7.80
2023-06-11T00:30:21.905Z,7.80
2023-06-11T00:32:48.876Z,7.70
2023-06-11T00:35:16.145Z,7.70
2023-06-11T00:37:43.333Z,7.60
2023-06-11T00:40:10.703Z,7.60
2023-06-11T00:42:38.070Z,7.60
2023-06-11T00:45:05.417Z,7.50
2023-06-11T00:47:33.649Z,7.50
2023-06-11T00:50:01.788Z,7.50
2023-06-11T00:52:28.841Z,7.50
2023-06-11T00:54:57.928Z,7.40
2023-06-11T00:57:27.353Z,7.30
2023-06-11T00:59:57.007Z,7.20
2023-06-11T01:02:29.742Z,7.00
2023-06-11T01:04:59.837Z,6.90
2023-06-11T01:07:31.550Z,6.90
2023-06-11T01:09:59.430Z,6.80
2023-06-11T01:12:26.717Z,6.80
2023-06-11T01:14:53.966Z,6.70
2023-06-11T01:17:25.931Z,6.80
2023-06-11T01:19:59.759Z,6.70
2023-06-11T01:22:50.456Z,6.70
2023-06-11T01:25:31.812Z,6.70
2023-06-11T01:28:13.596Z,6.80
2023-06-11T01:30:49.747Z,6.70
2023-06-11T01:33:20.057Z,6.70
2023-06-11T01:35:50.229Z,6.70
2023-06-11T01:38:17.293Z,6.70
2023-06-11T01:40:44.296Z,6.70
2023-06-11T01:43:11.229Z,6.60
2023-06-11T01:45:39.769Z,6.60
2023-06-11T01:48:07.382Z,6.60
2023-06-11T01:50:34.857Z,6.60
2023-06-11T01:53:02.147Z,6.60
2023-06-11T01:55:29.129Z,6.60
2023-06-11T01:57:56.704Z,6.70
2023-06-11T02:00:24.084Z,6.60
2023-06-11T02:02:51.163Z,6.40
2023-06-11T02:05:18.335Z,6.40
2023-06-11T02:07:45.282Z,6.40
2023-06-11T02:10:12.599Z,6.40
2023-06-11T02:12:39.512Z,6.50
2023-06-11T02:15:07.486Z,6.40
2023-06-11T02:17:34.575Z,6.40
2023-06-11T02:20:01.948Z,6.50
2023-06-11T02:22:28.890Z,6.50
2023-06-11T02:24:55.885Z,6.40
2023-06-11T02:27:22.931Z,6.50
2023-06-11T02:29:49.945Z,6.40
2023-06-11T02:32:17.050Z,6.50
2023-06-11T02:34:44.066Z,6.40
2023-06-11T02:37:11.035Z,6.30
2023-06-11T02:39:37.973Z,6.20
2023-06-11T02:42:05.354Z,6.20
2023-06-11T02:44:32.643Z,6.10
2023-06-11T02:46:59.569Z,6.20
2023-06-11T02:49:26.477Z,6.10
2023-06-11T02:51:53.459Z,6.10
2023-06-11T02:54:20.431Z,6.10
2023-06-11T02:56:47.305Z,6.10
2023-06-11T02:59:14.336Z,6.00
2023-06-11T03:01:42.071Z,6.00
2023-06-11T03:04:09.123Z,6.00
2023-06-11T03:06:36.665Z,6.00
2023-06-11T03:09:03.676Z,6.10
2023-06-11T03:11:30.602Z,6.10
2023-06-11T03:13:58.772Z,6.00
2023-06-11T03:16:26.011Z,6.00
2023-06-11T03:18:52.968Z,6.00
2023-06-11T03:21:19.982Z,6.10
2023-06-11T03:23:46.998Z,6.10
2023-06-11T03:26:13.955Z,6.10
2023-06-11T03:28:40.842Z,6.20
2023-06-11T03:31:07.863Z,6.30
2023-06-11T03:33:34.855Z,6.40
2023-06-11T03:36:01.791Z,6.40
2023-06-11T03:38:28.777Z,6.40
2023-06-11T03:40:55.807Z,6.50
2023-06-11T03:43:22.686Z,6.50
2023-06-11T03:45:49.612Z,6.60
2023-06-11T03:48:16.502Z,6.70
2023-06-11T03:50:43.519Z,6.70
2023-06-11T03:53:10.586Z,6.80
2023-06-11T03:55:37.572Z,6.80
2023-06-11T03:58:04.483Z,6.90
2023-06-11T04:00:33.356Z,6.90
2023-06-11T04:03:00.901Z,7.00
2023-06-11T04:05:27.946Z,7.00
2023-06-11T04:07:54.903Z,7.10
2023-06-11T04:10:23.684Z,7.20
2023-06-11T04:12:50.784Z,7.20
2023-06-11T04:15:17.643Z,7.30
2023-06-11T04:17:44.537Z,7.40
2023-06-11T04:20:12.001Z,7.50
2023-06-11T04:22:38.869Z,7.60
2023-06-11T04:25:07.700Z,7.70
2023-06-11T04:27:35.028Z,7.80
2023-06-11T04:30:03.612Z,7.90
2023-06-11T04:32:35.867Z,7.90
2023-06-11T04:35:04.144Z,8.00
2023-06-11T04:37:39.214Z,8.10
2023-06-11T04:40:13.144Z,8.10
2023-06-11T04:42:43.438Z,8.20
2023-06-11T04:45:11.716Z,8.30
2023-06-11T04:47:38.988Z,8.30
2023-06-11T04:50:07.695Z,8.40
2023-06-11T04:52:44.192Z,8.50
2023-06-11T04:55:13.498Z,8.50
2023-06-11T04:57:41.028Z,8.60
2023-06-11T05:00:09.582Z,8.70
2023-06-11T05:02:38.725Z,8.80
2023-06-11T05:05:09.099Z,8.90
2023-06-11T05:07:36.444Z,9.10
2023-06-11T05:10:03.504Z,9.20
2023-06-11T05:12:30.444Z,9.30
2023-06-11T05:14:57.303Z,9.40
2023-06-11T05:17:24.281Z,9.60
2023-06-11T05:19:52.443Z,9.70
2023-06-11T05:22:20.805Z,9.80
2023-06-11T05:24:48.938Z,10.20
2023-06-11T05:27:16.183Z,10.30
2023-06-11T05:29:45.903Z,10.50
2023-06-11T05:32:16.054Z,10.70
2023-06-11T05:34:44.423Z,10.90
2023-06-11T05:37:11.479Z,11.20
2023-06-11T05:39:38.388Z,11.30
2023-06-11T05:42:05.595Z,11.50
2023-06-11T05:44:32.520Z,11.70
2023-06-11T05:46:59.613Z,11.80
2023-06-11T05:49:26.580Z,12.00
2023-06-11T05:51:53.726Z,12.10
2023-06-11T05:54:20.876Z,12.40
2023-06-11T05:56:47.839Z,12.60
2023-06-11T05:59:14.824Z,12.80
2023-06-11T06:01:46.577Z,12.90
2023-06-11T06:04:15.354Z,13.00
2023-06-11T06:06:42.467Z,13.10
2023-06-11T06:09:10.317Z,13.20
2023-06-11T06:11:37.378Z,13.20
2023-06-11T06:14:04.313Z,13.30
2023-06-11T06:16:32.889Z,13.40
2023-06-11T06:19:00.272Z,13.50
2023-06-11T06:21:27.303Z,13.60
2023-06-11T06:23:54.454Z,13.60
2023-06-11T06:26:21.678Z,13.70
2023-06-11T06:28:48.612Z,13.70
2023-06-11T06:31:15.718Z,13.80
2023-06-11T06:33:42.682Z,13.90
2023-06-11T06:36:09.600Z,14.00
2023-06-11T06:38:37.677Z,14.00
2023-06-11T06:41:04.928Z,14.10
2023-06-11T06:43:31.954Z,14.10
2023-06-11T06:45:58.894Z,14.20
2023-06-11T06:48:26.517Z,14.20
2023-06-11T06:50:53.568Z,14.30
2023-06-11T06:53:20.660Z,14.30
2023-06-11T06:55:50.050Z,14.30
2023-06-11T06:58:19.280Z,14.40
2023-06-11T07:00:46.365Z,14.50
2023-06-11T07:03:15.244Z,14.50
2023-06-11T07:05:42.717Z,14.60
2023-06-11T07:08:11.638Z,14.70
2023-06-11T07:10:39.178Z,14.80
2023-06-11T07:13:06.747Z,14.80
2023-06-11T07:15:33.708Z,14.90
2023-06-11T07:18:00.848Z,14.90
2023-06-11T07:20:27.924Z,15.00
2023-06-11T07:22:54.974Z,15.00
2023-06-11T07:25:21.886Z,15.10
2023-06-11T07:27:48.938Z,15.20
2023-06-11T07:30:15.925Z,15.30
2023-06-11T07:32:42.996Z,15.30
2023-06-11T07:35:10.017Z,15.40
2023-06-11T07:37:36.897Z,15.40
2023-06-11T07:40:05.891Z,15.50
2023-06-11T07:42:32.775Z,15.50
2023-06-11T07:44:59.734Z,15.50
2023-06-11T07:47:26.703Z,15.50
2023-06-11T07:49:53.612Z,15.60
2023-06-11T07:52:20.608Z,15.70
2023-06-11T07:54:48.021Z,15.70
2023-06-11T07:57:15.151Z,15.80
2023-06-11T07:59:44.628Z,15.80
2023-06-11T08:02:12.562Z,15.90
2023-06-11T08:04:40.098Z,15.90
2023-06-11T08:07:07.108Z,15.90
2023-06-11T08:09:38.039Z,16.00
2023-06-11T08:12:07.104Z,16.10
2023-06-11T08:14:34.886Z,16.10
2023-06-11T08:17:02.282Z,16.10
2023-06-11T08:19:30.139Z,16.20
2023-06-11T08:21:57.424Z,16.30
2023-06-11T08:24:24.556Z,16.30
2023-06-11T08:26:51.748Z,16.30
2023-06-11T08:29:18.735Z,16.30
2023-06-11T08:31:45.851Z,16.40
2023-06-11T08:34:12.804Z,16.40
2023-06-11T08:36:41.980Z,16.40
2023-06-11T08:39:09.005Z,16.40
2023-06-11T08:41:37.303Z,16.40
2023-06-11T08:44:04.378Z,16.50
2023-06-11T08:46:36.689Z,16.50
2023-06-11T08:49:08.496Z,16.50
2023-06-11T08:51:39.436Z,16.50
2023-06-11T08:54:10.630Z,16.60
2023-06-11T08:56:37.954Z,16.60
2023-06-11T08:59:04.970Z,16.60
2023-06-11T09:01:32.826Z,16.70
2023-06-11T09:04:00.715Z,16.70
2023-06-11T09:06:29.386Z,16.80
2023-06-11T09:09:01.099Z,16.90
2023-06-11T09:11:35.738Z,16.90
2023-06-11T09:14:03.998Z,17.00
2023-06-11T09:16:43.088Z,17.00
2023-06-11T09:19:15.286Z,17.00
2023-06-11T09:21:51.220Z,17.10
2023-06-11T09:24:19.043Z,17.10
2023-06-11T09:26:59.504Z,17.10
2023-06-11T09:29:28.746Z,17.20
2023-06-11T09:32:10.082Z,17.20
2023-06-11T09:34:41.471Z,17.30
2023-06-11T09:37:12.356Z,17.30
2023-06-11T09:39:43.032Z,17.30
2023-06-11T09:42:24.532Z,17.30
2023-06-11T09:44:52.466Z,17.30
2023-06-11T09:47:20.028Z,17.30
2023-06-11T09:49:47.010Z,17.40
2023-06-11T09:52:15.380Z,17.40
2023-06-11T09:54:44.180Z,17.40
2023-06-11T09:57:12.382Z,17.40
2023-06-11T09:59:41.716Z,17.40
2023-06-11T10:02:09.398Z,17.50
2023-06-11T10:04:36.702Z,17.40
2023-06-11T10:07:06.182Z,17.50
2023-06-11T10:09:34.411Z,17.50
2023-06-11T10:12:02.287Z,17.60
2023-06-11T10:14:31.587Z,17.60
2023-06-11T10:16:58.666Z,17.60
2023-06-11T10:19:37.366Z,17.50
2023-06-11T10:22:04.385Z,17.60
2023-06-11T10:24:31.418Z,17.60
2023-06-11T10:27:15.567Z,17.60
2023-06-11T10:29:47.821Z,17.70
2023-06-11T10:32:16.732Z,17.70
2023-06-11T10:34:44.660Z,17.70
2023-06-11T10:37:13.256Z,17.70
2023-06-11T10:39:55.715Z,17.80
2023-06-11T10:42:28.349Z,17.90
2023-06-11T10:44:59.443Z,17.90
2023-06-11T10:47:28.190Z,17.90
2023-06-11T10:50:09.730Z,17.90
2023-06-11T10:52:57.205Z,18.00
2023-06-11T10:55:27.541Z,18.10
2023-06-11T10:57:55.278Z,18.10
2023-06-11T11:00:23.200Z,18.00
2023-06-11T11:02:51.883Z,18.10
2023-06-11T11:05:18.925Z,18.10
2023-06-11T11:07:47.238Z,18.10
2023-06-11T11:10:20.243Z,18.00
2023-06-11T11:12:48.902Z,18.10
2023-06-11T11:15:16.854Z,18.20
2023-06-11T11:17:45.335Z,18.10
2023-06-11T11:20:15.298Z,18.10
2023-06-11T11:22:42.321Z,18.20
2023-06-11T11:25:09.609Z,18.30
2023-06-11T11:27:39.201Z,18.30
2023-06-11T11:30:07.479Z,18.30
2023-06-11T11:32:35.586Z,18.30
2023-06-11T11:35:04.687Z,18.30
2023-06-11T11:37:31.902Z,18.30
2023-06-11T11:40:07.700Z,18.30
2023-06-11T11:42:57.020Z,18.30
2023-06-11T11:45:31.600Z,18.40
2023-06-11T11:48:01.209Z,18.40
2023-06-11T11:50:35.007Z,18.30
2023-06-11T11:53:05.910Z,18.40
2023-06-11T11:55:52.248Z,18.40
2023-06-11T11:58:28.004Z,18.50
2023-06-11T12:00:57.826Z,18.50
2023-06-11T12:03:25.932Z,18.50
2023-06-11T12:06:00.537Z,18.50
2023-06-11T12:08:29.726Z,18.50
2023-06-11T12:10:58.001Z,18.60
2023-06-11T12:13:25.439Z,18.60
2023-06-11T12:15:52.690Z,18.60
2023-06-11T12:18:19.842Z,18.50
2023-06-11T12:20:47.889Z,18.60
2023-06-11T12:23:15.567Z,18.60
2023-06-11T12:25:43.747Z,18.60
2023-06-11T12:28:10.843Z,18.60
2023-06-11T12:30:37.930Z,18.50
2023-06-11T12:33:05.084Z,18.70
2023-06-11T12:35:32.167Z,18.70
2023-06-11T12:37:59.468Z,18.70
2023-06-11T12:40:28.420Z,18.70
2023-06-11T12:42:59.924Z,18.80
2023-06-11T12:45:34.003Z,18.80
2023-06-11T12:48:01.499Z,18.80
2023-06-11T12:50:28.886Z,18.90
2023-06-11T12:52:56.592Z,19.00
2023-06-11T12:55:25.600Z,18.90
2023-06-11T12:57:52.775Z,18.90
2023-06-11T13:00:20.108Z,18.90
2023-06-11T13:02:47.368Z,19.00
2023-06-11T13:05:14.419Z,19.00
2023-06-11T13:07:41.354Z,19.00
2023-06-11T13:10:09.175Z,19.10
2023-06-11T13:12:36.423Z,19.20
2023-06-11T13:15:03.523Z,19.20
2023-06-11T13:17:30.561Z,19.20
2023-06-11T13:19:57.487Z,19.20
2023-06-11T13:22:24.516Z,19.30
2023-06-11T13:24:51.508Z,19.30
2023-06-11T13:27:18.423Z,19.40
2023-06-11T13:29:45.458Z,19.40
2023-06-11T13:32:12.431Z,19.40
2023-06-11T13:34:39.890Z,19.40
2023-06-11T13:37:07.137Z,19.40
2023-06-11T13:39:34.399Z,19.50
2023-06-11T13:42:01.785Z,19.50
2023-06-11T13:44:28.950Z,19.50
2023-06-11T13:46:55.950Z,19.60
2023-06-11T13:49:24.214Z,19.60
2023-06-11T13:51:52.869Z,19.60
2023-06-11T13:54:19.781Z,19.70
2023-06-11T13:56:47.124Z,19.80
2023-06-11T13:59:14.112Z,19.80
2023-06-11T14:01:41.028Z,19.80
2023-06-11T14:04:09.062Z,19.70
2023-06-11T14:06:37.818Z,19.70
2023-06-11T14:09:05.551Z,19.70
2023-06-11T14:11:32.662Z,19.70
2023-06-11T14:14:00.435Z,19.60
2023-06-11T14:16:28.317Z,19.70
2023-06-11T14:18:55.305Z,19.70
2023-06-11T14:21:22.311Z,19.60
2023-06-11T14:23:49.362Z,19.60
2023-06-11T14:26:16.349Z,19.60
2023-06-11T14:28:43.240Z,19.60
2023-06-11T14:31:10.224Z,19.60
2023-06-11T14:33:37.365Z,19.70
2023-06-11T14:36:06.347Z,19.60
2023-06-11T14:38:34.491Z,19.40
2023-06-11T14:41:01.519Z,19.60
2023-06-11T14:43:28.643Z,19.60
2023-06-11T14:45:55.626Z,19.50
2023-06-11T14:48:22.662Z,19.50
2023-06-11T14:50:49.742Z,19.60
2023-06-11T14:53:16.850Z,19.60
2023-06-11T14:55:44.427Z,19.60
2023-06-11T14:58:11.600Z,19.60
2023-06-11T15:00:38.707Z,19.40
2023-06-11T15:03:09.799Z,19.40
2023-06-11T15:05:40.452Z,19.60
2023-06-11T15:08:07.408Z,19.70
2023-06-11T15:10:34.380Z,19.90
2023-06-11T15:13:01.327Z,19.90
2023-06-11T15:15:28.276Z,20.00
2023-06-11T15:17:55.232Z,20.10
2023-06-11T15:20:22.191Z,20.20
2023-06-11T15:22:49.118Z,20.20
2023-06-11T15:25:16.075Z,20.40
2023-06-11T15:27:43.135Z,20.50
2023-06-11T15:30:10.606Z,20.70
2023-06-11T15:32:37.809Z,20.90
2023-06-11T15:35:06.210Z,21.00
2023-06-11T15:37:33.132Z,21.20
2023-06-11T15:40:00.223Z,21.20
2023-06-11T15:42:27.198Z,21.30
2023-06-11T15:44:54.067Z,21.30
2023-06-11T15:47:21.061Z,21.40
2023-06-11T15:49:48.245Z,21.50
2023-06-11T15:52:15.270Z,21.50
2023-06-11T15:54:42.328Z,21.40
2023-06-11T15:57:09.593Z,21.30
2023-06-11T15:59:36.547Z,21.20
2023-06-11T16:02:03.753Z,21.30
2023-06-11T16:04:34.494Z,21.10
2023-06-11T16:07:01.825Z,21.00
2023-06-11T16:09:29.199Z,21.00
2023-06-11T16:11:56.149Z,21.00
2023-06-11T16:14:23.190Z,21.00
2023-06-11T16:16:50.565Z,20.80
2023-06-11T16:19:18.318Z,20.70
2023-06-11T16:21:45.540Z,20.60
2023-06-11T16:24:13.043Z,20.50
2023-06-11T16:26:40.156Z,20.30
2023-06-11T16:29:07.196Z,20.10
2023-06-11T16:31:34.188Z,19.90
2023-06-11T16:34:02.106Z,19.80
2023-06-11T16:36:30.179Z,19.50
2023-06-11T16:39:06.224Z,19.30
2023-06-11T16:41:45.628Z,19.20
2023-06-11T16:44:12.638Z,19.00
2023-06-11T16:46:39.703Z,18.80
2023-06-11T16:49:06.884Z,18.60
2023-06-11T16:51:33.884Z,18.50
2023-06-11T16:54:00.871Z,18.40
2023-06-11T16:56:27.801Z,18.40
2023-06-11T16:58:56.166Z,18.40
2023-06-11T17:01:24.590Z,18.40
2023-06-11T17:03:51.771Z,18.30
2023-06-11T17:06:18.739Z,18.30
2023-06-11T17:08:45.915Z,18.20
2023-06-11T17:11:12.962Z,18.10
2023-06-11T17:13:39.935Z,18.00
2023-06-11T17:16:07.344Z,17.90
2023-06-11T17:18:37.307Z,17.80
2023-06-11T17:21:07.393Z,17.80
2023-06-11T17:23:34.493Z,17.70
2023-06-11T17:26:01.537Z,17.70
2023-06-11T17:28:28.597Z,17.70
2023-06-11T17:30:56.203Z,17.70
2023-06-11T17:33:23.220Z,17.70
2023-06-11T17:35:52.779Z,17.70
2023-06-11T17:38:19.873Z,17.60
2023-06-11T17:40:46.803Z,17.50
2023-06-11T17:43:13.727Z,17.50
2023-06-11T17:45:40.780Z,17.40
2023-06-11T17:48:07.899Z,17.30
2023-06-11T17:50:34.936Z,17.30
2023-06-11T17:53:02.610Z,17.20
2023-06-11T17:55:29.616Z,17.10
2023-06-11T17:57:57.201Z,17.10
2023-06-11T18:00:24.326Z,17.00
2023-06-11T18:02:52.207Z,17.00
2023-06-11T18:05:19.303Z,17.00
2023-06-11T18:07:47.379Z,17.00
2023-06-11T18:10:16.200Z,16.90
2023-06-11T18:12:45.514Z,16.80
2023-06-11T18:17:42.989Z,16.80
2023-06-11T18:20:10.444Z,16.70
2023-06-11T18:22:37.446Z,16.70
2023-06-11T18:25:05.223Z,16.70
2023-06-11T18:27:32.291Z,16.70
2023-06-11T18:29:59.191Z,16.70
2023-06-11T18:32:26.187Z,16.70
2023-06-11T18:34:53.143Z,16.60
2023-06-11T18:37:20.064Z,16.60
2023-06-11T18:39:47.052Z,16.50
2023-06-11T18:42:17.777Z,16.50
2023-06-11T18:44:45.847Z,16.50
2023-06-11T18:47:13.698Z,16.50
2023-06-11T18:49:40.911Z,16.40
2023-06-11T18:52:09.512Z,16.40
2023-06-11T18:54:36.866Z,16.30
2023-06-11T18:57:06.245Z,16.30
2023-06-11T18:59:33.269Z,16.30
2023-06-11T19:02:00.203Z,16.30
2023-06-11T19:04:28.050Z,16.30
2023-06-11T19:06:55.346Z,16.30
2023-06-11T19:09:22.499Z,16.20
2023-06-11T19:11:49.400Z,16.20
2023-06-11T19:14:16.390Z,16.10
2023-06-11T19:16:44.647Z,16.20
2023-06-11T19:19:11.726Z,16.10
2023-06-11T19:21:38.607Z,16.10
2023-06-11T19:24:05.863Z,16.10
2023-06-11T19:26:32.900Z,16.00
2023-06-11T19:28:59.974Z,15.90
2023-06-11T19:31:26.913Z,16.00
2023-06-11T19:33:53.878Z,15.90
2023-06-11T19:36:20.955Z,15.90
2023-06-11T19:38:47.957Z,15.80
2023-06-11T19:41:15.817Z,15.80
2023-06-11T19:43:43.045Z,15.80
2023-06-11T19:46:10.140Z,15.70
2023-06-11T19:48:37.053Z,15.70
2023-06-11T19:51:03.989Z,15.60
2023-06-11T19:53:31.007Z,15.60
2023-06-11T19:55:57.923Z,15.50
2023-06-11T19:58:24.826Z,15.40
2023-06-11T20:00:51.701Z,15.40
2023-06-11T20:03:18.718Z,15.40
2023-06-11T20:05:45.897Z,15.40
2023-06-11T20:08:14.995Z,15.30
2023-06-11T20:10:44.944Z,15.30
2023-06-11T20:13:11.838Z,15.20
2023-06-11T20:15:38.879Z,15.10
2023-06-11T20:18:05.860Z,15.10
2023-06-11T20:20:32.874Z,15.10
2023-06-11T20:22:59.820Z,15.00
2023-06-11T20:25:28.864Z,15.00
2023-06-11T20:27:55.789Z,15.00
2023-06-11T20:30:23.534Z,14.90
2023-06-11T20:32:50.590Z,14.90
2023-06-11T20:35:17.766Z,14.80
2023-06-11T20:37:44.683Z,14.90
2023-06-11T20:40:12.211Z,14.90
2023-06-11T20:42:40.910Z,14.80
2023-06-11T20:45:08.912Z,14.80
2023-06-11T20:47:36.195Z,14.70
2023-06-11T20:50:03.815Z,14.70
2023-06-11T20:52:31.052Z,14.70
2023-06-11T20:54:57.991Z,14.60
2023-06-11T20:57:24.903Z,14.60
2023-06-11T20:59:51.805Z,14.60
2023-06-11T21:02:18.954Z,14.50
2023-06-11T21:04:45.909Z,14.50
2023-06-11T21:07:12.881Z,14.50
2023-06-11T21:09:39.834Z,14.50
2023-06-11T21:12:07.205Z,14.40
2023-06-11T21:14:34.143Z,14.40
2023-06-11T21:17:01.103Z,14.40
2023-06-11T21:19:28.044Z,14.30
2023-06-11T21:21:55.009Z,14.30
2023-06-11T21:24:22.053Z,14.30
2023-06-11T21:26:49.231Z,14.20
2023-06-11T21:29:16.220Z,14.20
2023-06-11T21:31:44.032Z,14.10
2023-06-11T21:34:11.096Z,14.10
2023-06-11T21:36:38.260Z,14.00
2023-06-11T21:39:05.146Z,14.00
2023-06-11T21:41:32.049Z,14.00
2023-06-11T21:43:59.004Z,14.00
2023-06-11T21:46:26.077Z,14.00
2023-06-11T21:48:53.050Z,13.90
2023-06-11T21:51:21.235Z,13.90
2023-06-11T21:53:48.136Z,13.90
2023-06-11T21:56:15.104Z,13.90
2023-06-11T21:58:42.106Z,13.80
2023-06-11T22:01:09.079Z,13.70
2023-06-11T22:03:36.067Z,13.70
2023-06-11T22:06:04.216Z,13.70
2023-06-11T22:08:31.485Z,13.70
2023-06-11T22:10:58.395Z,13.70
2023-06-11T22:13:25.380Z,13.60
2023-06-11T22:15:52.324Z,13.60
2023-06-11T22:18:22.841Z,13.60
2023-06-11T22:20:49.987Z,13.60
2023-06-11T22:23:17.375Z,13.60
2023-06-11T22:25:44.267Z,13.50
2023-06-11T22:28:11.164Z,13.50
2023-06-11T22:30:48.177Z,13.40
2023-06-11T22:33:23.658Z,13.40
2023-06-11T22:35:50.586Z,13.40
2023-06-11T22:38:17.466Z,13.40
2023-06-11T22:40:44.421Z,13.30
2023-06-11T22:43:11.675Z,13.30
2023-06-11T22:45:38.637Z,13.20
2023-06-11T22:48:06.547Z,13.10
2023-06-11T22:50:35.093Z,13.00
2023-06-11T22:53:03.569Z,12.90
2023-06-11T22:55:30.522Z,12.80
2023-06-11T22:57:57.462Z,12.80
2023-06-11T23:00:24.390Z,12.70
2023-06-11T23:02:51.499Z,12.60
2023-06-11T23:05:18.566Z,12.50
2023-06-11T23:07:47.714Z,12.40
2023-06-11T23:10:18.053Z,12.30
2023-06-11T23:12:44.965Z,12.30
2023-06-11T23:15:11.998Z,12.20
2023-06-11T23:17:41.164Z,12.20
2023-06-11T23:20:09.525Z,12.20
2023-06-11T23:22:38.109Z,12.20
2023-06-11T23:25:05.799Z,12.10
2023-06-11T23:27:34.537Z,12.00
2023-06-11T23:30:02.736Z,12.00
2023-06-11T23:32:30.200Z,11.90
2023-06-11T23:35:01.028Z,11.90
2023-06-11T23:37:28.622Z,11.80
2023-06-11T23:39:56.573Z,11.80
2023-06-11T23:42:23.518Z,11.80
2023-06-11T23:44:51.213Z,11.70
2023-06-11T23:47:18.164Z,11.70
2023-06-11T23:49:45.120Z,11.60
2023-06-11T23:52:11.985Z,11.60
2023-06-11T23:54:39.086Z,11.60
2023-06-11T23:57:06.440Z,11.50
2023-06-11T23:59:33.398Z,11.50
